Time;durP1;ratioP1;P1;durP2;ratioP2;P2;SDS_P1;SDS_P2;PMS_P1;PMS_P2;Temp;Humidity;BMP_temperature;BMP_pressure;BME280_temperature;BME280_humidity;BME280_pressure;Samples;Min_cycle;Max_cycle;Signal;HPM_P1;HPM_P2
2022/08/30 00:01:05;;;;;;;;;;;;;;;;;;4786959;29;19929;-47
2022/08/30 00:03:40;;;;;;;;;;;;;;;;;;4787164;30;20020;-49
2022/08/30 00:06:08;;;;;;;;;;;;;;;;;;4786969;29;19926;-45
2022/08/30 00:08:36;;;;;;;;;;;;;;;;;;4800557;29;19933;-51
2022/08/30 00:11:05;;;;;;;;;;;;;;;;;;4787117;29;19983;-43
2022/08/30 00:13:32;;;;;;;;;;;;;;;;;;4786977;30;19989;-46
2022/08/30 00:16:00;;;;;;;;;;;;;;;;;;4800487;29;19958;-49
2022/08/30 00:18:27;;;;;;;;;;;;;;;;;;4787034;29;20492;-50
2022/08/30 00:20:55;;;;;;;;;;;;;;;;;;4786722;29;20028;-47
2022/08/30 00:23:23;;;;;;;;;;;;;;;;;;4779319;29;20037;-45
2022/08/30 00:25:50;;;;;;;;;;;;;;;;;;4769133;30;19926;-45
2022/08/30 00:28:18;;;;;;;;;;;;;;;;;;4769139;30;20398;-46
2022/08/30 00:30:45;;;;;;;;;;;;;;;;;;4768804;29;20402;-43
2022/08/30 00:33:13;;;;;;;;;;;;;;;;;;4769179;30;20340;-46
2022/08/30 00:35:42;;;;;;;;;;;;;;;;;;4769034;29;19992;-46
2022/08/30 00:38:10;;;;;;;;;;;;;;;;;;4769055;29;20402;-43
2022/08/30 00:40:38;;;;;;;;;;;;;;;;;;4769065;29;20081;-45
2022/08/30 00:43:08;;;;;;;;;;;;;;;;;;4782549;30;19926;-51
2022/08/30 00:45:37;;;;;;;;;;;;;;;;;;4768812;30;20012;-44
2022/08/30 00:48:06;;;;;;;;;;;;;;;;;;4769043;30;19925;-44
2022/08/30 00:50:45;;;;;;;;;;;;;;;;;;4768874;30;20004;-46
2022/08/30 00:53:15;;;;;;;;;;;;;;;;;;4769119;30;19926;-48
2022/08/30 00:55:43;;;;;;;;;;;;;;;;;;4769228;29;20349;-46
2022/08/30 00:58:12;;;;;;;;;;;;;;;;;;4770554;30;19926;-45
2022/08/30 01:00:40;;;;;;;;;;;;;;;;;;4772264;30;19926;-46
2022/08/30 01:03:08;;;;;;;;;;;;;;;;;;4772073;30;19926;-47
2022/08/30 01:05:37;;;;;;;;;;;;;;;;;;4771949;30;19934;-50
2022/08/30 01:08:05;;;;;;;;;;;;;;;;;;4771923;29;20410;-43
2022/08/30 01:10:33;;;;;;;;;;;;;;;;;;4771985;29;20413;-42
2022/08/30 01:13:01;;;;;;;;;;;;;;;;;;4771654;30;19925;-51
2022/08/30 01:15:30;;;;;;;;;;;;;;;;;;4771591;30;20013;-45
2022/08/30 01:17:57;;;;;;;;;;;;;;;;;;4771727;30;20017;-50
2022/08/30 01:20:30;;;;;;;;;;;;;;;;;;4783629;30;20012;-44
2022/08/30 01:22:57;;;;;;;;;;;;;;;;;;4789555;30;20004;-47
2022/08/30 01:25:27;;;;;;;;;;;;;;;;;;4789253;30;19933;-43
2022/08/30 01:28:00;;;;;;;;;;;;;;;;;;4789411;29;20020;-47
2022/08/30 01:30:28;;;;;;;;;;;;;;;;;;4789469;29;19983;-44
2022/08/30 01:32:57;;;;;;;;;;;;;;;;;;4789191;29;19925;-48
2022/08/30 01:35:25;;;;;;;;;;;;;;;;;;4789466;30;19930;-45
2022/08/30 01:37:53;;;;;;;;;;;;;;;;;;4789376;29;19931;-46
2022/08/30 01:40:20;;;;;;;;;;;;;;;;;;4789030;29;19929;-43
2022/08/30 01:42:48;;;;;;;;;;;;;;;;;;4802974;29;19932;-46
2022/08/30 01:45:16;;;;;;;;;;;;;;;;;;4789450;30;20363;-50
2022/08/30 01:47:44;;;;;;;;;;;;;;;;;;4789323;30;19983;-44
2022/08/30 01:50:11;;;;;;;;;;;;;;;;;;4788826;29;20020;-43
2022/08/30 01:52:38;;;;;;;;;;;;;;;;;;4788994;29;19937;-46
2022/08/30 01:55:06;;;;;;;;;;;;;;;;;;4788785;30;19960;-42
2022/08/30 01:57:33;;;;;;;;;;;;;;;;;;4788181;29;19932;-47
2022/08/30 02:00:01;;;;;;;;;;;;;;;;;;4788885;29;19925;-42
2022/08/30 02:02:37;;;;;;;;;;;;;;;;;;4788900;29;20033;-44
2022/08/30 02:05:05;;;;;;;;;;;;;;;;;;4789019;29;19963;-47
2022/08/30 02:07:32;;;;;;;;;;;;;;;;;;4788658;29;19932;-42
2022/08/30 02:10:01;;;;;;;;;;;;;;;;;;4787985;29;20377;-45
2022/08/30 02:12:29;;;;;;;;;;;;;;;;;;4788635;29;20356;-47
2022/08/30 02:14:56;;;;;;;;;;;;;;;;;;4788677;29;20297;-47
2022/08/30 02:17:24;;;;;;;;;;;;;;;;;;4788588;29;19925;-47
2022/08/30 02:19:51;;;;;;;;;;;;;;;;;;4788410;29;20383;-45
2022/08/30 02:22:19;;;;;;;;;;;;;;;;;;4788436;29;19960;-43
2022/08/30 02:24:47;;;;;;;;;;;;;;;;;;4788581;29;20297;-42
2022/08/30 02:27:14;;;;;;;;;;;;;;;;;;4788613;29;20384;-41
2022/08/30 02:29:41;;;;;;;;;;;;;;;;;;4788556;29;19985;-43
2022/08/30 02:32:08;;;;;;;;;;;;;;;;;;4788332;29;20009;-42
2022/08/30 02:34:35;;;;;;;;;;;;;;;;;;4788298;30;19929;-44
2022/08/30 02:37:03;;;;;;;;;;;;;;;;;;4788242;29;20389;-43
2022/08/30 02:39:31;;;;;;;;;;;;;;;;;;4788139;29;19932;-43
2022/08/30 02:41:59;;;;;;;;;;;;;;;;;;4788226;30;19932;-44
2022/08/30 02:44:26;;;;;;;;;;;;;;;;;;4788195;29;19926;-43
2022/08/30 02:46:53;;;;;;;;;;;;;;;;;;4787802;29;19930;-41
2022/08/30 02:49:21;;;;;;;;;;;;;;;;;;4788067;29;20373;-44
2022/08/30 02:52:04;;;;;;;;;;;;;;;;;;4788334;29;20369;-43
2022/08/30 02:54:32;;;;;;;;;;;;;;;;;;4787988;29;19983;-44
2022/08/30 02:57:03;;;;;;;;;;;;;;;;;;4787989;30;20349;-43
2022/08/30 02:59:31;;;;;;;;;;;;;;;;;;4787782;29;19929;-42
2022/08/30 03:01:58;;;;;;;;;;;;;;;;;;4788031;29;20371;-42
2022/08/30 03:04:25;;;;;;;;;;;;;;;;;;4781073;29;19930;-42
2022/08/30 03:06:53;;;;;;;;;;;;;;;;;;4769640;30;19926;-51
2022/08/30 03:09:21;;;;;;;;;;;;;;;;;;4769887;29;19930;-43
2022/08/30 03:11:48;;;;;;;;;;;;;;;;;;4769921;30;19926;-51
2022/08/30 03:14:15;;;;;;;;;;;;;;;;;;4769849;30;19995;-42
2022/08/30 03:16:42;;;;;;;;;;;;;;;;;;4769723;30;19929;-48
2022/08/30 03:19:09;;;;;;;;;;;;;;;;;;4772381;30;20402;-42
2022/08/30 03:21:39;;;;;;;;;;;;;;;;;;4787269;29;19936;-41
2022/08/30 03:24:07;;;;;;;;;;;;;;;;;;4787410;29;19955;-48
2022/08/30 03:26:34;;;;;;;;;;;;;;;;;;4775131;29;19925;-41
2022/08/30 03:29:02;;;;;;;;;;;;;;;;;;4769342;30;19929;-42
2022/08/30 03:31:30;;;;;;;;;;;;;;;;;;4769592;30;20009;-42
2022/08/30 03:33:57;;;;;;;;;;;;;;;;;;4769777;30;19975;-42
2022/08/30 03:36:24;;;;;;;;;;;;;;;;;;4782572;30;19932;-45
2022/08/30 03:38:51;;;;;;;;;;;;;;;;;;4769506;29;19925;-43
2022/08/30 03:41:18;;;;;;;;;;;;;;;;;;4775922;29;20334;-42
2022/08/30 03:43:46;;;;;;;;;;;;;;;;;;4785647;29;19930;-42
2022/08/30 03:46:13;;;;;;;;;;;;;;;;;;4786844;29;19926;-40
2022/08/30 03:48:40;;;;;;;;;;;;;;;;;;4787324;29;20127;-54
2022/08/30 03:51:08;;;;;;;;;;;;;;;;;;4786778;29;19932;-43
2022/08/30 03:53:36;;;;;;;;;;;;;;;;;;4786497;29;20127;-46
2022/08/30 03:56:03;;;;;;;;;;;;;;;;;;4787104;30;19983;-47
2022/08/30 03:58:31;;;;;;;;;;;;;;;;;;4787055;29;19929;-49
2022/08/30 04:00:58;;;;;;;;;;;;;;;;;;4768834;30;19932;-40
2022/08/30 04:03:26;;;;;;;;;;;;;;;;;;4768852;30;19965;-43
2022/08/30 04:05:54;;;;;;;;;;;;;;;;;;4768536;30;19975;-47
2022/08/30 04:08:21;;;;;;;;;;;;;;;;;;4768905;29;19932;-43
2022/08/30 04:10:49;;;;;;;;;;;;;;;;;;4769630;30;19926;-41
2022/08/30 04:13:19;;;;;;;;;;;;;;;;;;4769040;30;19930;-42
2022/08/30 04:15:47;;;;;;;;;;;;;;;;;;4768718;29;19968;-44
2022/08/30 04:18:15;;;;;;;;;;;;;;;;;;4768907;30;19930;-48
2022/08/30 04:20:42;;;;;;;;;;;;;;;;;;4782765;30;19975;-54
2022/08/30 04:23:11;;;;;;;;;;;;;;;;;;4786533;30;20008;-43
2022/08/30 04:25:39;;;;;;;;;;;;;;;;;;4786068;30;19983;-54
2022/08/30 04:28:07;;;;;;;;;;;;;;;;;;4787014;30;19933;-44
2022/08/30 04:30:37;;;;;;;;;;;;;;;;;;4783959;29;20020;-48
2022/08/30 04:33:05;;;;;;;;;;;;;;;;;;4769691;30;19930;-47
2022/08/30 04:35:32;;;;;;;;;;;;;;;;;;4771715;29;19959;-48
2022/08/30 04:37:59;;;;;;;;;;;;;;;;;;4772510;30;19934;-54
2022/08/30 04:40:27;;;;;;;;;;;;;;;;;;4773581;29;19929;-47
2022/08/30 04:42:55;;;;;;;;;;;;;;;;;;4789852;29;19932;-47
2022/08/30 04:45:22;;;;;;;;;;;;;;;;;;4790151;29;19925;-47
2022/08/30 04:47:49;;;;;;;;;;;;;;;;;;4789854;29;19968;-50
2022/08/30 04:50:17;;;;;;;;;;;;;;;;;;4790341;29;19933;-51
2022/08/30 04:52:45;;;;;;;;;;;;;;;;;;4789609;29;19957;-54
2022/08/30 04:55:13;;;;;;;;;;;;;;;;;;4790018;29;19925;-53
2022/08/30 04:57:45;;;;;;;;;;;;;;;;;;4789560;29;19925;-44
2022/08/30 05:00:12;;;;;;;;;;;;;;;;;;4789795;29;19932;-51
2022/08/30 05:02:39;;;;;;;;;;;;;;;;;;4789491;29;19932;-42
2022/08/30 05:07:53;;;;;;;;;;;;;;;;;;4788954;29;19933;-46
2022/08/30 05:10:21;;;;;;;;;;;;;;;;;;4790167;30;19979;-40
2022/08/30 05:12:49;;;;;;;;;;;;;;;;;;4789096;29;19929;-54
2022/08/30 05:15:16;;;;;;;;;;;;;;;;;;4789943;30;19926;-46
2022/08/30 05:17:43;;;;;;;;;;;;;;;;;;4802912;29;19930;-49
2022/08/30 05:20:11;;;;;;;;;;;;;;;;;;4788324;29;20027;-52
2022/08/30 05:22:40;;;;;;;;;;;;;;;;;;4787254;29;20012;-42
2022/08/30 05:25:08;;;;;;;;;;;;;;;;;;4786825;29;20349;-47
2022/08/30 05:27:35;;;;;;;;;;;;;;;;;;4780880;29;19934;-44
2022/08/30 05:30:05;;;;;;;;;;;;;;;;;;4769406;30;20367;-42
2022/08/30 05:32:32;;;;;;;;;;;;;;;;;;4768391;30;20044;-42
2022/08/30 05:34:59;;;;;;;;;;;;;;;;;;4769305;30;20037;-42
2022/08/30 05:37:26;;;;;;;;;;;;;;;;;;4781787;30;20402;-42
2022/08/30 05:39:55;;;;;;;;;;;;;;;;;;4787367;29;20417;-45
2022/08/30 05:42:22;;;;;;;;;;;;;;;;;;4787264;29;19925;-39
2022/08/30 05:44:53;;;;;;;;;;;;;;;;;;4786892;29;19933;-43
2022/08/30 05:47:20;;;;;;;;;;;;;;;;;;4787143;29;20297;-41
2022/08/30 05:49:48;;;;;;;;;;;;;;;;;;4788999;29;20473;-42
2022/08/30 05:52:17;;;;;;;;;;;;;;;;;;4788972;30;19932;-48
2022/08/30 05:54:44;;;;;;;;;;;;;;;;;;4789047;29;20390;-46
2022/08/30 05:57:12;;;;;;;;;;;;;;;;;;4788968;29;19926;-51
2022/08/30 05:59:39;;;;;;;;;;;;;;;;;;4789029;30;19947;-43
2022/08/30 06:02:06;;;;;;;;;;;;;;;;;;4789135;30;19925;-42
2022/08/30 06:04:35;;;;;;;;;;;;;;;;;;4788761;30;19932;-43
2022/08/30 06:07:03;;;;;;;;;;;;;;;;;;4788637;29;19976;-44
2022/08/30 06:09:30;;;;;;;;;;;;;;;;;;4788547;29;20390;-51
2022/08/30 06:11:57;;;;;;;;;;;;;;;;;;4788817;29;20394;-42
2022/08/30 06:14:25;;;;;;;;;;;;;;;;;;4788691;29;20024;-44
2022/08/30 06:16:52;;;;;;;;;;;;;;;;;;4788688;29;20275;-43
2022/08/30 06:19:19;;;;;;;;;;;;;;;;;;4789306;29;19932;-44
2022/08/30 06:21:47;;;;;;;;;;;;;;;;;;4788947;29;19929;-44
2022/08/30 06:24:15;;;;;;;;;;;;;;;;;;4788474;30;19926;-44
2022/08/30 06:26:44;;;;;;;;;;;;;;;;;;4788444;29;19929;-43
2022/08/30 06:29:12;;;;;;;;;;;;;;;;;;4788430;29;20036;-42
2022/08/30 06:31:39;;;;;;;;;;;;;;;;;;4788481;29;20451;-43
2022/08/30 06:34:06;;;;;;;;;;;;;;;;;;4788281;29;19925;-46
2022/08/30 06:36:34;;;;;;;;;;;;;;;;;;4787912;29;19932;-44
2022/08/30 06:39:02;;;;;;;;;;;;;;;;;;4788423;30;19925;-42
2022/08/30 06:41:30;;;;;;;;;;;;;;;;;;4788066;29;19933;-43
2022/08/30 06:43:59;;;;;;;;;;;;;;;;;;4788132;29;19929;-45
2022/08/30 06:46:28;;;;;;;;;;;;;;;;;;4788033;29;19936;-45
2022/08/30 06:48:56;;;;;;;;;;;;;;;;;;4787562;29;19934;-49
2022/08/30 06:51:25;;;;;;;;;;;;;;;;;;4787907;30;19933;-45
2022/08/30 06:53:52;;;;;;;;;;;;;;;;;;4787912;29;19925;-42
2022/08/30 06:56:20;;;;;;;;;;;;;;;;;;4787251;29;20393;-43
2022/08/30 06:58:48;;;;;;;;;;;;;;;;;;4787922;29;20293;-43
2022/08/30 07:01:17;;;;;;;;;;;;;;;;;;4787571;29;20473;-43
2022/08/30 07:03:44;;;;;;;;;;;;;;;;;;4787103;29;19978;-44
2022/08/30 07:06:12;;;;;;;;;;;;;;;;;;4787894;29;19929;-43
2022/08/30 07:08:39;;;;;;;;;;;;;;;;;;4787484;29;19925;-43
2022/08/30 07:11:07;;;;;;;;;;;;;;;;;;4801136;29;20382;-43
2022/08/30 07:13:35;;;;;;;;;;;;;;;;;;4786372;30;19953;-43
2022/08/30 07:16:10;;;;;;;;;;;;;;;;;;4785918;29;19925;-43
2022/08/30 07:18:50;;;;;;;;;;;;;;;;;;4785840;30;19929;-42
2022/08/30 07:21:18;;;;;;;;;;;;;;;;;;4768506;30;19969;-43
2022/08/30 07:23:48;;;;;;;;;;;;;;;;;;4767894;29;19932;-44
2022/08/30 07:27:00;;;;;;;;;;;;;;;;;;4769343;30;19933;-48
2022/08/30 07:34:21;;;;;;;;;;;;;;;;;;4786094;30;19944;-43
2022/08/30 07:36:53;;;;;;;;;;;;;;;;;;4787428;29;19925;-45
2022/08/30 07:39:20;;;;;;;;;;;;;;;;;;4787689;29;20008;-46
2022/08/30 07:41:47;;;;;;;;;;;;;;;;;;4787531;29;19929;-47
2022/08/30 07:44:14;;;;;;;;;;;;;;;;;;4787550;29;20012;-51
2022/08/30 07:46:42;;;;;;;;;;;;;;;;;;4787093;30;19972;-54
2022/08/30 07:49:10;;;;;;;;;;;;;;;;;;4787157;29;20305;-45
2022/08/30 07:51:38;;;;;;;;;;;;;;;;;;4787319;29;19964;-46
2022/08/30 07:54:05;;;;;;;;;;;;;;;;;;4787329;29;19978;-54
2022/08/30 07:56:34;;;;;;;;;;;;;;;;;;4776644;29;19932;-48
2022/08/30 07:59:01;;;;;;;;;;;;;;;;;;4769092;30;20348;-51
2022/08/30 08:01:28;;;;;;;;;;;;;;;;;;4769108;30;19930;-51
2022/08/30 08:03:56;;;;;;;;;;;;;;;;;;4769360;30;19929;-45
2022/08/30 08:06:24;;;;;;;;;;;;;;;;;;4768693;30;19999;-44
2022/08/30 08:08:52;;;;;;;;;;;;;;;;;;4771828;30;19977;-49
2022/08/30 08:11:23;;;;;;;;;;;;;;;;;;4772920;30;19982;-43
2022/08/30 08:13:51;;;;;;;;;;;;;;;;;;4772974;29;20014;-45
2022/08/30 08:16:20;;;;;;;;;;;;;;;;;;4772834;30;19937;-43
2022/08/30 08:18:48;;;;;;;;;;;;;;;;;;4772850;30;19933;-42
2022/08/30 08:21:15;;;;;;;;;;;;;;;;;;4790661;29;19998;-42
2022/08/30 08:23:42;;;;;;;;;;;;;;;;;;4790443;29;19933;-44
2022/08/30 08:26:10;;;;;;;;;;;;;;;;;;4790698;29;20393;-45
2022/08/30 08:28:37;;;;;;;;;;;;;;;;;;4790444;29;19942;-43
2022/08/30 08:31:13;;;;;;;;;;;;;;;;;;4790645;29;19929;-44
2022/08/30 08:33:40;;;;;;;;;;;;;;;;;;4790447;29;20390;-42
2022/08/30 08:36:07;;;;;;;;;;;;;;;;;;4790202;29;19933;-43
2022/08/30 08:38:35;;;;;;;;;;;;;;;;;;4784381;30;19933;-45
2022/08/30 08:41:06;;;;;;;;;;;;;;;;;;4772299;30;19933;-44
2022/08/30 08:43:34;;;;;;;;;;;;;;;;;;4772159;30;19933;-42
2022/08/30 08:46:01;;;;;;;;;;;;;;;;;;4772706;30;20382;-42
2022/08/30 08:48:40;;;;;;;;;;;;;;;;;;4772082;30;19976;-42
2022/08/30 08:54:19;;;;;;;;;;;;;;;;;;4782493;29;20016;-41
2022/08/30 08:56:46;;;;;;;;;;;;;;;;;;4789620;29;20301;-43
2022/08/30 08:59:14;;;;;;;;;;;;;;;;;;4789827;29;19925;-45
2022/08/30 09:01:41;;;;;;;;;;;;;;;;;;4789403;29;20409;-42
2022/08/30 09:04:14;;;;;;;;;;;;;;;;;;4789746;29;20012;-43
2022/08/30 09:06:44;;;;;;;;;;;;;;;;;;4789849;30;19973;-44
2022/08/30 09:09:12;;;;;;;;;;;;;;;;;;4803579;29;20758;-42
2022/08/30 09:11:40;;;;;;;;;;;;;;;;;;4789485;29;19965;-44
2022/08/30 09:14:11;;;;;;;;;;;;;;;;;;4789835;30;19930;-44
2022/08/30 09:16:56;;;;;;;;;;;;;;;;;;4789805;29;19973;-47
2022/08/30 09:19:28;;;;;;;;;;;;;;;;;;4789288;29;19926;-43
2022/08/30 09:21:57;;;;;;;;;;;;;;;;;;4788393;29;19926;-42
2022/08/30 09:24:24;;;;;;;;;;;;;;;;;;4788388;29;20382;-43
2022/08/30 09:26:52;;;;;;;;;;;;;;;;;;4788531;29;20359;-43
2022/08/30 09:29:19;;;;;;;;;;;;;;;;;;4788763;29;19976;-44
2022/08/30 09:31:49;;;;;;;;;;;;;;;;;;4788380;29;19925;-42
2022/08/30 09:34:21;;;;;;;;;;;;;;;;;;4788607;29;19932;-44
2022/08/30 09:36:50;;;;;;;;;;;;;;;;;;4787572;29;20409;-43
2022/08/30 09:39:28;;;;;;;;;;;;;;;;;;4787871;29;19931;-44
2022/08/30 09:42:11;;;;;;;;;;;;;;;;;;4787147;29;19929;-43
2022/08/30 09:44:39;;;;;;;;;;;;;;;;;;4787653;29;20454;-41
2022/08/30 09:47:16;;;;;;;;;;;;;;;;;;4787307;30;19980;-43
2022/08/30 09:49:49;;;;;;;;;;;;;;;;;;4787954;29;20409;-43
2022/08/30 09:52:32;;;;;;;;;;;;;;;;;;4789094;29;19925;-45
2022/08/30 09:55:08;;;;;;;;;;;;;;;;;;4789280;30;19926;-43
2022/08/30 09:57:42;;;;;;;;;;;;;;;;;;4789029;29;19926;-44
2022/08/30 10:00:11;;;;;;;;;;;;;;;;;;4788970;29;20348;-44
2022/08/30 10:02:39;;;;;;;;;;;;;;;;;;4789142;30;19972;-43
2022/08/30 10:05:15;;;;;;;;;;;;;;;;;;4789103;29;19929;-44
2022/08/30 10:07:51;;;;;;;;;;;;;;;;;;4788746;30;19929;-44
2022/08/30 10:10:51;;;;;;;;;;;;;;;;;;4789048;29;19977;-44
2022/08/30 10:13:34;;;;;;;;;;;;;;;;;;4778378;30;19932;-43
2022/08/30 10:16:01;;;;;;;;;;;;;;;;;;4788733;30;19932;-43
2022/08/30 10:18:40;;;;;;;;;;;;;;;;;;4788573;30;19936;-45
2022/08/30 10:21:07;;;;;;;;;;;;;;;;;;4788417;29;19930;-44
2022/08/30 10:23:36;;;;;;;;;;;;;;;;;;4778809;30;19987;-42
2022/08/30 10:26:06;;;;;;;;;;;;;;;;;;4769984;29;19953;-42
2022/08/30 10:28:36;;;;;;;;;;;;;;;;;;4770312;30;19925;-43
2022/08/30 10:31:06;;;;;;;;;;;;;;;;;;4769586;29;20298;-42
2022/08/30 10:33:42;;;;;;;;;;;;;;;;;;4770378;30;19926;-46
2022/08/30 10:36:10;;;;;;;;;;;;;;;;;;4770646;30;19925;-48
2022/08/30 10:38:43;;;;;;;;;;;;;;;;;;4770115;30;19926;-49
2022/08/30 10:41:16;;;;;;;;;;;;;;;;;;4770120;30;20402;-44
2022/08/30 10:44:04;;;;;;;;;;;;;;;;;;4770250;30;19937;-41
2022/08/30 10:47:01;;;;;;;;;;;;;;;;;;4770314;29;19926;-43
2022/08/30 10:49:31;;;;;;;;;;;;;;;;;;4769383;30;20414;-45
2022/08/30 10:52:02;;;;;;;;;;;;;;;;;;4769507;30;20012;-48
2022/08/30 10:54:33;;;;;;;;;;;;;;;;;;4769555;29;20348;-44
2022/08/30 10:57:01;;;;;;;;;;;;;;;;;;4768902;29;19926;-44
2022/08/30 10:59:28;;;;;;;;;;;;;;;;;;4770075;29;19929;-42
2022/08/30 11:02:08;;;;;;;;;;;;;;;;;;4770520;30;19925;-49
2022/08/30 11:04:58;;;;;;;;;;;;;;;;;;4768325;30;19930;-45
2022/08/30 11:07:32;;;;;;;;;;;;;;;;;;4766783;30;19955;-43
2022/08/30 11:10:06;;;;;;;;;;;;;;;;;;4766517;29;20340;-41
2022/08/30 11:12:52;;;;;;;;;;;;;;;;;;4766418;29;20371;-48
2022/08/30 11:15:22;;;;;;;;;;;;;;;;;;4766974;29;19933;-48
2022/08/30 11:17:59;;;;;;;;;;;;;;;;;;4766363;29;19975;-44
2022/08/30 11:20:30;;;;;;;;;;;;;;;;;;4780564;30;19925;-46
2022/08/30 11:23:12;;;;;;;;;;;;;;;;;;4787378;29;19978;-48
2022/08/30 11:25:48;;;;;;;;;;;;;;;;;;4787346;29;20297;-44
2022/08/30 11:28:36;;;;;;;;;;;;;;;;;;4787803;29;19932;-53
2022/08/30 11:31:03;;;;;;;;;;;;;;;;;;4787491;29;19929;-44
2022/08/30 11:33:44;;;;;;;;;;;;;;;;;;4787402;29;19948;-43
2022/08/30 11:36:27;;;;;;;;;;;;;;;;;;4787521;29;19926;-48
2022/08/30 11:38:54;;;;;;;;;;;;;;;;;;4787503;29;19932;-51
2022/08/30 11:41:47;;;;;;;;;;;;;;;;;;4787540;29;20012;-49
2022/08/30 11:44:14;;;;;;;;;;;;;;;;;;4786451;29;20512;-47
2022/08/30 11:46:42;;;;;;;;;;;;;;;;;;4787162;30;20012;-52
2022/08/30 11:49:13;;;;;;;;;;;;;;;;;;4787114;30;19925;-50
2022/08/30 11:51:50;;;;;;;;;;;;;;;;;;4787386;30;20004;-45
2022/08/30 11:54:53;;;;;;;;;;;;;;;;;;4787401;29;19925;-42
2022/08/30 11:57:35;;;;;;;;;;;;;;;;;;4787594;29;19932;-47
2022/08/30 12:00:11;;;;;;;;;;;;;;;;;;4787072;29;19955;-48
2022/08/30 12:02:41;;;;;;;;;;;;;;;;;;4787646;29;19936;-43
2022/08/30 12:05:28;;;;;;;;;;;;;;;;;;4787126;30;19952;-50
2022/08/30 12:07:55;;;;;;;;;;;;;;;;;;4787016;29;20286;-52
2022/08/30 12:10:34;;;;;;;;;;;;;;;;;;4787028;29;19926;-42
2022/08/30 12:13:02;;;;;;;;;;;;;;;;;;4787305;29;20404;-45
2022/08/30 12:15:47;;;;;;;;;;;;;;;;;;4787194;29;20015;-44
2022/08/30 12:18:29;;;;;;;;;;;;;;;;;;4800768;29;19998;-43
2022/08/30 12:21:00;;;;;;;;;;;;;;;;;;4786943;30;19925;-44
2022/08/30 12:23:33;;;;;;;;;;;;;;;;;;4786975;30;19925;-42
2022/08/30 12:26:13;;;;;;;;;;;;;;;;;;4786889;29;19925;-42
2022/08/30 12:28:40;;;;;;;;;;;;;;;;;;4787004;30;19976;-47
2022/08/30 12:31:10;;;;;;;;;;;;;;;;;;4786850;29;19979;-51
2022/08/30 12:33:48;;;;;;;;;;;;;;;;;;4786871;30;19931;-44
2022/08/30 12:36:38;;;;;;;;;;;;;;;;;;4786904;29;19942;-43
2022/08/30 12:39:07;;;;;;;;;;;;;;;;;;4800333;29;20465;-47
2022/08/30 12:41:34;;;;;;;;;;;;;;;;;;4783971;29;19934;-48
2022/08/30 12:44:01;;;;;;;;;;;;;;;;;;4768982;29;20306;-49
2022/08/30 12:46:31;;;;;;;;;;;;;;;;;;4768991;30;20008;-51
2022/08/30 12:48:58;;;;;;;;;;;;;;;;;;4768709;29;20020;-46
2022/08/30 12:51:27;;;;;;;;;;;;;;;;;;4769020;30;19926;-48
2022/08/30 12:54:02;;;;;;;;;;;;;;;;;;4770233;30;19953;-43
2022/08/30 12:56:47;;;;;;;;;;;;;;;;;;4772106;29;20371;-49
2022/08/30 12:59:35;;;;;;;;;;;;;;;;;;4772259;29;19925;-48
2022/08/30 13:02:07;;;;;;;;;;;;;;;;;;4772236;30;19925;-43
2022/08/30 13:04:34;;;;;;;;;;;;;;;;;;4772307;29;19926;-46
2022/08/30 13:07:01;;;;;;;;;;;;;;;;;;4772022;30;19930;-51
2022/08/30 13:09:30;;;;;;;;;;;;;;;;;;4771883;29;19925;-49
2022/08/30 13:11:58;;;;;;;;;;;;;;;;;;4771837;30;19960;-49
2022/08/30 13:14:39;;;;;;;;;;;;;;;;;;4771920;30;20401;-45
2022/08/30 13:17:20;;;;;;;;;;;;;;;;;;4771636;30;19929;-52
2022/08/30 13:19:56;;;;;;;;;;;;;;;;;;4778761;30;19926;-42
2022/08/30 13:22:25;;;;;;;;;;;;;;;;;;4789544;29;20301;-42
2022/08/30 13:24:53;;;;;;;;;;;;;;;;;;4789618;29;20028;-44
2022/08/30 13:27:20;;;;;;;;;;;;;;;;;;4789823;29;20012;-43
2022/08/30 13:29:47;;;;;;;;;;;;;;;;;;4789396;29;20020;-48
2022/08/30 13:32:17;;;;;;;;;;;;;;;;;;4789513;29;19925;-44
2022/08/30 13:34:44;;;;;;;;;;;;;;;;;;4789663;29;20358;-50
2022/08/30 13:37:17;;;;;;;;;;;;;;;;;;4789435;29;20443;-46
2022/08/30 13:40:04;;;;;;;;;;;;;;;;;;4789374;30;19933;-41
2022/08/30 13:42:32;;;;;;;;;;;;;;;;;;4789167;29;19926;-42
2022/08/30 13:44:59;;;;;;;;;;;;;;;;;;4789151;29;19929;-48
2022/08/30 13:47:26;;;;;;;;;;;;;;;;;;4789096;29;19932;-42
2022/08/30 13:50:01;;;;;;;;;;;;;;;;;;4789231;29;20460;-46
2022/08/30 13:52:28;;;;;;;;;;;;;;;;;;4789110;29;19961;-48
2022/08/30 13:54:56;;;;;;;;;;;;;;;;;;4789088;29;20012;-42
2022/08/30 13:57:25;;;;;;;;;;;;;;;;;;4789274;29;20360;-42
2022/08/30 14:00:16;;;;;;;;;;;;;;;;;;4788841;29;19926;-46
2022/08/30 14:02:44;;;;;;;;;;;;;;;;;;4789128;29;20409;-43
2022/08/30 14:05:17;;;;;;;;;;;;;;;;;;4788744;29;19929;-42
2022/08/30 14:08:05;;;;;;;;;;;;;;;;;;4788849;29;20370;-44
2022/08/30 14:10:38;;;;;;;;;;;;;;;;;;4788482;29;19972;-43
2022/08/30 14:13:14;;;;;;;;;;;;;;;;;;4788753;30;19932;-43
2022/08/30 14:15:44;;;;;;;;;;;;;;;;;;4788707;30;19926;-43
2022/08/30 14:18:11;;;;;;;;;;;;;;;;;;4788989;29;19926;-52
2022/08/30 14:20:44;;;;;;;;;;;;;;;;;;4801944;29;19930;-43
2022/08/30 14:23:11;;;;;;;;;;;;;;;;;;4788614;29;20292;-49
2022/08/30 14:25:38;;;;;;;;;;;;;;;;;;4802331;29;19931;-42
2022/08/30 14:28:06;;;;;;;;;;;;;;;;;;4788672;29;19963;-44
2022/08/30 14:30:35;;;;;;;;;;;;;;;;;;4788654;29;20020;-45
2022/08/30 14:33:02;;;;;;;;;;;;;;;;;;4801707;29;19965;-42
2022/08/30 14:35:29;;;;;;;;;;;;;;;;;;4788422;29;19925;-44
2022/08/30 14:37:57;;;;;;;;;;;;;;;;;;4788592;29;19973;-45
2022/08/30 14:40:24;;;;;;;;;;;;;;;;;;4788373;30;19925;-45
2022/08/30 14:42:53;;;;;;;;;;;;;;;;;;4787581;29;19925;-43
2022/08/30 14:45:21;;;;;;;;;;;;;;;;;;4787739;29;19969;-46
2022/08/30 14:47:49;;;;;;;;;;;;;;;;;;4787968;29;19932;-44
2022/08/30 14:50:16;;;;;;;;;;;;;;;;;;4801877;29;19932;-44
2022/08/30 14:52:43;;;;;;;;;;;;;;;;;;4788375;29;19929;-44
2022/08/30 14:55:11;;;;;;;;;;;;;;;;;;4787928;29;19983;-43
2022/08/30 14:57:39;;;;;;;;;;;;;;;;;;4787937;29;19964;-45
2022/08/30 15:00:08;;;;;;;;;;;;;;;;;;4787935;29;19925;-45
2022/08/30 15:02:35;;;;;;;;;;;;;;;;;;4787754;29;19929;-42
2022/08/30 15:05:03;;;;;;;;;;;;;;;;;;4787778;30;19929;-44
2022/08/30 15:07:32;;;;;;;;;;;;;;;;;;4780356;29;19926;-42
2022/08/30 15:09:59;;;;;;;;;;;;;;;;;;4769906;30;19930;-44
2022/08/30 15:12:27;;;;;;;;;;;;;;;;;;4769666;30;19926;-50
2022/08/30 15:14:54;;;;;;;;;;;;;;;;;;4769653;30;19961;-43
2022/08/30 15:17:21;;;;;;;;;;;;;;;;;;4769601;30;19926;-42
2022/08/30 15:19:49;;;;;;;;;;;;;;;;;;4777310;30;19925;-46
2022/08/30 15:22:16;;;;;;;;;;;;;;;;;;4787733;29;19964;-43
2022/08/30 15:24:43;;;;;;;;;;;;;;;;;;4787373;30;20496;-45
2022/08/30 15:27:14;;;;;;;;;;;;;;;;;;4787533;29;19932;-43
2022/08/30 15:29:41;;;;;;;;;;;;;;;;;;4787355;30;19955;-42
2022/08/30 15:32:09;;;;;;;;;;;;;;;;;;4787393;30;20306;-43
2022/08/30 15:34:36;;;;;;;;;;;;;;;;;;4787502;29;19930;-42
2022/08/30 15:37:03;;;;;;;;;;;;;;;;;;4787505;29;19925;-43
2022/08/30 15:39:31;;;;;;;;;;;;;;;;;;4787236;29;19929;-44
2022/08/30 15:41:58;;;;;;;;;;;;;;;;;;4787408;29;20002;-43
2022/08/30 15:44:28;;;;;;;;;;;;;;;;;;4787483;29;19925;-43
2022/08/30 15:46:57;;;;;;;;;;;;;;;;;;4787145;29;19925;-45
2022/08/30 15:49:24;;;;;;;;;;;;;;;;;;4787281;30;19976;-44
2022/08/30 15:51:52;;;;;;;;;;;;;;;;;;4787578;30;19932;-45
2022/08/30 15:54:20;;;;;;;;;;;;;;;;;;4787587;29;19925;-43
2022/08/30 15:56:47;;;;;;;;;;;;;;;;;;4787211;29;19925;-46
2022/08/30 15:59:16;;;;;;;;;;;;;;;;;;4787177;29;19926;-48
2022/08/30 16:01:44;;;;;;;;;;;;;;;;;;4787167;29;20036;-44
2022/08/30 16:04:15;;;;;;;;;;;;;;;;;;4787331;29;19929;-44
2022/08/30 16:06:45;;;;;;;;;;;;;;;;;;4787048;30;20377;-47
2022/08/30 16:09:12;;;;;;;;;;;;;;;;;;4786832;30;19969;-44
2022/08/30 16:11:40;;;;;;;;;;;;;;;;;;4787104;29;19926;-47
2022/08/30 16:14:08;;;;;;;;;;;;;;;;;;4787218;29;19926;-50
2022/08/30 16:16:38;;;;;;;;;;;;;;;;;;4787097;30;20297;-54
2022/08/30 16:19:05;;;;;;;;;;;;;;;;;;4787026;29;20028;-47
2022/08/30 16:21:35;;;;;;;;;;;;;;;;;;4787093;29;19932;-44
2022/08/30 16:24:04;;;;;;;;;;;;;;;;;;4786930;29;19925;-51
2022/08/30 16:26:32;;;;;;;;;;;;;;;;;;4787102;29;19963;-51
2022/08/30 16:29:00;;;;;;;;;;;;;;;;;;4788296;29;19925;-50
2022/08/30 16:31:28;;;;;;;;;;;;;;;;;;4790384;29;19925;-50
2022/08/30 16:33:56;;;;;;;;;;;;;;;;;;4790461;29;20012;-50
2022/08/30 16:36:31;;;;;;;;;;;;;;;;;;4790618;29;19933;-44
2022/08/30 16:38:59;;;;;;;;;;;;;;;;;;4790399;29;19948;-44
2022/08/30 16:41:26;;;;;;;;;;;;;;;;;;4790268;29;19925;-46
2022/08/30 16:43:53;;;;;;;;;;;;;;;;;;4790668;30;19925;-43
2022/08/30 16:46:21;;;;;;;;;;;;;;;;;;4790503;29;20043;-50
2022/08/30 16:48:55;;;;;;;;;;;;;;;;;;4790199;30;20417;-43
2022/08/30 16:51:24;;;;;;;;;;;;;;;;;;4790296;29;20281;-48
2022/08/30 16:53:53;;;;;;;;;;;;;;;;;;4788631;29;20479;-46
2022/08/30 16:56:23;;;;;;;;;;;;;;;;;;4772537;30;20028;-43
2022/08/30 16:58:52;;;;;;;;;;;;;;;;;;4772446;29;19933;-45
2022/08/30 17:01:27;;;;;;;;;;;;;;;;;;4772150;29;20394;-42
2022/08/30 17:03:55;;;;;;;;;;;;;;;;;;4772036;29;19932;-47
2022/08/30 17:06:22;;;;;;;;;;;;;;;;;;4772273;30;19932;-48
2022/08/30 17:08:49;;;;;;;;;;;;;;;;;;4772115;30;19933;-42
2022/08/30 17:11:22;;;;;;;;;;;;;;;;;;4772293;30;19926;-47
2022/08/30 17:13:49;;;;;;;;;;;;;;;;;;4771831;30;19926;-52
2022/08/30 17:16:17;;;;;;;;;;;;;;;;;;4772218;29;19926;-44